KGL weather

Kigali International Airport
Kigali, Ville de Kigali, Rwanda

Public forecast

Using degrees Celsius for public forecast. Weather courtesy of forecast.io.

Current aviation weather report (METAR) for Kigali International Airport

Retrieved 2019/10/23 12:00 UTC (59 minutes ago):

HRYR 231200Z 06005KT 9999 TS FEW023CB SCT025 SCT300 25/16 Q1016 NOSIG

Aviation forecast (TAF) for Kigali International Airport

Retrieved 2019/10/23 12:42 UTC (17 minutes ago):

TAF TAF COR HRYR 231100Z 2312/2418 09008KT 9999 FEW023CB BKN025 TEMPO 2313/2314 -TSRA BECMG 2317/2321 32004KT FEW026 BECMG 2402/2405 00000KT 7000 FM240900 16008KT 9999 BKN023 BECMG 2411/2414 08012KT FEW023CB BKN025